^^
Meteo Knjazevac Station Historical Data
Daily Summary for February 23, 2021 Units:  Metric    English   Both
Daily Weekly Monthly Yearly Custom
  High: Low: Average:
Temperature: 15.4 °C 13.5 °C 14.5 °C
Dew Point: 12.8 °C 11.7 °C 12.2 °C
Humidity: 95% 80% 86%
Wind Speed: 8km/h 0km/h 2.3km/h
Wind Gust: 12.9km/h - -
Wind- - SSW
Pressure: 1022.2 hPa 1020.2 hPa -
Precipitation: 0.25 mm    
Historical Graphs
 
 
Tabular Data for February 23, 2021
Time Temperature Dew Point Pressure Wind Wind Speed Wind Gust Humidity Rainfall Rate (Hourly) solar Conditions
00:00 15.3 °C 11.9 °C 1020.2 hPa NE 3.2 km/h 9.7 km/h 80% 0 mm 0 W/m2
00:10 15.4 °C 11.9 °C 1020.2 hPa SE 4.8 km/h 9.7 km/h 80% 0 mm 0 W/m2
00:20 15.4 °C 11.9 °C 1020.2 hPa SE 4.8 km/h 8 km/h 80% 0 mm 0 W/m2
00:30 15.3 °C 11.9 °C 1020.2 hPa Calm   8 km/h 80% 0 mm 0 W/m2
00:40 15.2 °C 11.8 °C 1020.2 hPa ESE 3.2 km/h 9.7 km/h 80% 0 mm 0 W/m2
00:50 15.2 °C 11.9 °C 1020.5 hPa NE 8 km/h 12.9 km/h 81% 0 mm 0 W/m2
01:00 15.2 °C 11.8 °C 1020.5 hPa NE 3.2 km/h 12.9 km/h 80% 0 mm 0 W/m2
01:10 15.1 °C 11.9 °C 1020.5 hPa Calm   8 km/h 81% 0 mm 0 W/m2
01:20 14.9 °C 12.1 °C 1020.5 hPa NNW 1.6 km/h 4.8 km/h 83% 0 mm 0 W/m2
01:30 14.7 °C 11.8 °C 1020.5 hPa NNE 1.6 km/h 6.4 km/h 83% 0 mm 0 W/m2
01:40 14.9 °C 11.7 °C 1020.5 hPa SE 3.2 km/h 6.4 km/h 81% 0 mm 0 W/m2
01:50 14.8 °C 11.9 °C 1020.9 hPa NNW 1.6 km/h 4.8 km/h 83% 0 mm 0 W/m2
02:00 14.9 °C 12.1 °C 1020.9 hPa East 1.6 km/h 6.4 km/h 83% 0 mm 0 W/m2
02:10 15 °C 11.8 °C 1020.9 hPa SW 1.6 km/h 6.4 km/h 81% 0 mm 0 W/m2
02:20 15 °C 12.1 °C 1020.9 hPa NW 3.2 km/h 4.8 km/h 83% 0 mm 0 W/m2
02:30 14.9 °C 12.1 °C 1020.9 hPa West 1.6 km/h 6.4 km/h 83% 0 mm 0 W/m2
02:40 14.8 °C 12.1 °C 1020.9 hPa West 1.6 km/h 4.8 km/h 84% 0 mm 0 W/m2
02:50 14.7 °C 12 °C 1020.9 hPa SW 1.6 km/h 4.8 km/h 84% 0 mm 0 W/m2
03:00 14.7 °C 12 °C 1020.9 hPa WSW 1.6 km/h 4.8 km/h 84% 0 mm 0 W/m2
03:10 14.7 °C 12.2 °C 1020.9 hPa West 1.6 km/h 4.8 km/h 85% 0 mm 0 W/m2
03:20 14.6 °C 12.1 °C 1020.9 hPa West 3.2 km/h 6.4 km/h 85% 0 mm 0 W/m2
03:30 14.6 °C 12.1 °C 1020.9 hPa WSW 1.6 km/h 8 km/h 85% 0 mm 0 W/m2
03:40 14.6 °C 12.1 °C 1020.9 hPa WSW 3.2 km/h 4.8 km/h 85% 0 mm 0 W/m2
03:50 14.6 °C 12.1 °C 1020.9 hPa SW 1.6 km/h 3.2 km/h 85% 0 mm 0 W/m2
04:00 14.5 °C 12 °C 1020.9 hPa SSW 3.2 km/h 4.8 km/h 85% 0 mm 0 W/m2
04:10 14.4 °C 12.1 °C 1020.9 hPa SW 1.6 km/h 4.8 km/h 86% 0 mm 0 W/m2
04:20 14.4 °C 12.1 °C 1020.9 hPa West 1.6 km/h 4.8 km/h 86% 0 mm 0 W/m2
04:30 14.3 °C 12.3 °C 1021.2 hPa WSW 3.2 km/h 4.8 km/h 88% 0 mm 0 W/m2
04:40 14.3 °C 12.3 °C 1021.2 hPa West 3.2 km/h 6.4 km/h 88% 0 mm 0 W/m2
04:50 14.2 °C 12.2 °C 1021.2 hPa West 3.2 km/h 6.4 km/h 88% 0 mm 0 W/m2
05:00 14.2 °C 12.4 °C 1021.6 hPa Calm   6.4 km/h 89% 0 mm 0 W/m2
05:10 14.2 °C 12.4 °C 1021.6 hPa WNW 1.6 km/h 3.2 km/h 89% 0 mm 0 W/m2
05:20 14.2 °C 12.6 °C 1021.6 hPa West 1.6 km/h 4.8 km/h 90% 0 mm 0 W/m2
05:30 14.1 °C 12.5 °C 1021.6 hPa Calm   3.2 km/h 90% 0 mm 0 W/m2
05:40 14.1 °C 12.7 °C 1021.6 hPa Calm   3.2 km/h 91% 0 mm 0 W/m2
05:50 14 °C 12.6 °C 1021.6 hPa West 1.6 km/h 3.2 km/h 91% 0 mm 0 W/m2
06:00 14 °C 12.6 °C 1021.6 hPa SSW 1.6 km/h 3.2 km/h 91% 0 mm 0 W/m2
06:10 13.8 °C 12.7 °C 1021.6 hPa SSE 3.2 km/h 8 km/h 93% 0 mm 0 W/m2
06:20 13.7 °C 12.8 °C 1021.6 hPa SSE 1.6 km/h 6.4 km/h 94% 0 mm 0 W/m2
06:30 13.7 °C 12.8 °C 1021.9 hPa West 1.6 km/h 3.2 km/h 94% 0 mm 0 W/m2
06:40 13.6 °C 12.7 °C 1021.9 hPa Calm   3.2 km/h 94% 0 mm 0 W/m2
06:50 13.6 °C 12.8 °C 1021.9 hPa NNE 3.2 km/h 6.4 km/h 95% 0 mm 0 W/m2
07:00 13.6 °C 12.8 °C 1021.9 hPa NE 3.2 km/h 4.8 km/h 95% 0 mm 0 W/m2
07:10 13.5 °C 12.7 °C 1022.2 hPa NE 3.2 km/h 8 km/h 95% 0 mm 2 W/m2
Knjazevac, Serbia
Compliments of Weather Underground - 2 mb